createdAt,value
2023-05-05T00:00:51.787Z,5.40
2023-05-05T00:03:56.573Z,4.65
2023-05-05T00:07:01.057Z,4.97
2023-05-05T00:10:07.088Z,4.28
2023-05-05T00:13:12.072Z,4.22
2023-05-05T00:16:16.456Z,5.20
2023-05-05T00:19:20.997Z,4.30
2023-05-05T00:22:25.936Z,5.10
2023-05-05T00:25:30.541Z,3.78
2023-05-05T00:28:35.236Z,5.68
2023-05-05T00:31:39.872Z,5.20
2023-05-05T00:34:44.553Z,5.47
2023-05-05T00:37:49.240Z,4.97
2023-05-05T00:40:53.718Z,4.60
2023-05-05T00:43:58.267Z,4.82
2023-05-05T00:47:03.534Z,5.30
2023-05-05T00:50:09.891Z,7.70
2023-05-05T00:53:14.333Z,5.32
2023-05-05T00:56:21.997Z,4.80
2023-05-05T00:59:30.116Z,4.22
2023-05-05T01:02:34.821Z,4.85
2023-05-05T01:06:06.489Z,4.85
2023-05-05T01:09:35.191Z,4.53
2023-05-05T01:13:05.580Z,4.15
2023-05-05T01:16:20.087Z,4.75
2023-05-05T01:20:10.206Z,4.47
2023-05-05T01:23:44.242Z,5.00
2023-05-05T01:27:11.184Z,4.00
2023-05-05T01:30:59.860Z,3.90
2023-05-05T01:34:09.754Z,4.57
2023-05-05T01:37:26.742Z,7.53
2023-05-05T01:40:38.282Z,3.65
2023-05-05T01:43:46.339Z,4.95
2023-05-05T01:46:53.280Z,5.53
2023-05-05T01:49:59.831Z,4.57
2023-05-05T01:53:06.225Z,5.90
2023-05-05T01:56:12.752Z,6.20
2023-05-05T01:59:17.843Z,7.53
2023-05-05T02:02:26.211Z,8.25
2023-05-05T02:05:33.786Z,7.20
2023-05-05T02:08:40.996Z,6.90
2023-05-05T02:11:45.802Z,8.07
2023-05-05T02:14:52.246Z,7.85
2023-05-05T02:17:58.032Z,6.80
2023-05-05T02:21:03.759Z,6.47
2023-05-05T02:24:09.178Z,6.88
2023-05-05T02:27:18.783Z,8.38
2023-05-05T02:30:24.166Z,7.82
2023-05-05T02:33:33.322Z,7.20
2023-05-05T02:36:42.385Z,6.18
2023-05-05T02:39:58.785Z,5.93
2023-05-05T02:43:10.290Z,6.53
2023-05-05T02:46:16.904Z,7.07
2023-05-05T02:49:24.470Z,7.07
2023-05-05T02:52:35.177Z,7.20
2023-05-05T02:56:07.814Z,8.00
2023-05-05T02:59:53.239Z,6.45
2023-05-05T03:03:16.616Z,4.85
2023-05-05T03:06:27.254Z,5.93
2023-05-05T03:09:45.565Z,6.22
2023-05-05T03:12:56.697Z,5.78
2023-05-05T03:16:10.906Z,6.28
2023-05-05T03:19:18.426Z,5.82
2023-05-05T03:22:27.618Z,5.47
2023-05-05T03:25:46.626Z,5.38
2023-05-05T03:29:05.726Z,7.00
2023-05-05T03:32:16.832Z,7.00
2023-05-05T03:35:24.393Z,5.70
2023-05-05T03:38:28.857Z,6.32
2023-05-05T03:41:34.465Z,5.78
2023-05-05T03:44:39.404Z,6.13
2023-05-05T03:47:44.322Z,5.97
2023-05-05T03:50:49.205Z,5.68
2023-05-05T03:53:56.145Z,5.07
2023-05-05T03:57:00.700Z,6.25
2023-05-05T04:00:06.819Z,6.07
2023-05-05T04:03:19.083Z,5.13
2023-05-05T04:06:24.284Z,5.20
2023-05-05T04:09:28.736Z,5.47
2023-05-05T04:12:33.921Z,5.57
2023-05-05T04:15:43.798Z,5.40
2023-05-05T04:18:48.867Z,6.70
2023-05-05T04:21:53.805Z,6.35
2023-05-05T04:24:58.524Z,4.97
2023-05-05T04:28:02.925Z,4.88
2023-05-05T04:31:08.710Z,6.88
2023-05-05T04:34:16.417Z,6.55
2023-05-05T04:37:21.118Z,6.28
2023-05-05T04:40:26.367Z,6.22
2023-05-05T04:43:32.207Z,6.60
2023-05-05T04:46:36.861Z,7.28
2023-05-05T04:49:41.732Z,6.13
2023-05-05T04:52:46.245Z,6.13
2023-05-05T04:55:51.213Z,6.32
2023-05-05T04:58:55.983Z,5.95
2023-05-05T05:02:00.372Z,6.40
2023-05-05T05:05:06.521Z,6.85
2023-05-05T05:08:10.859Z,6.78
2023-05-05T05:11:17.969Z,7.15
2023-05-05T05:14:22.559Z,6.40
2023-05-05T05:17:27.379Z,6.70
2023-05-05T05:20:33.003Z,7.53
2023-05-05T05:23:37.891Z,7.63
2023-05-05T05:26:42.837Z,5.72
2023-05-05T05:29:47.524Z,7.35
2023-05-05T05:32:53.077Z,5.30
2023-05-05T05:35:58.042Z,6.18
2023-05-05T05:39:03.929Z,5.32
2023-05-05T05:42:08.865Z,4.90
2023-05-05T05:45:13.899Z,5.93
2023-05-05T05:48:18.987Z,6.00
2023-05-05T05:51:23.620Z,5.97
2023-05-05T05:54:28.855Z,5.10
2023-05-05T05:57:33.054Z,8.63
2023-05-05T06:00:40.016Z,5.88
2023-05-05T06:03:47.086Z,5.20
2023-05-05T06:06:52.195Z,5.68
2023-05-05T06:09:57.044Z,6.45
2023-05-05T06:13:01.911Z,5.20
2023-05-05T06:16:08.663Z,5.30
2023-05-05T06:19:14.138Z,4.90
2023-05-05T06:22:18.458Z,5.20
2023-05-05T06:25:23.365Z,3.88
2023-05-05T06:28:30.019Z,5.55
2023-05-05T06:31:34.612Z,4.43
2023-05-05T06:34:38.804Z,3.45
2023-05-05T06:37:44.276Z,3.88
2023-05-05T06:40:51.563Z,3.85
2023-05-05T06:43:56.900Z,4.75
2023-05-05T06:47:01.434Z,3.53
2023-05-05T06:50:07.554Z,5.70
2023-05-05T06:53:12.084Z,3.08
2023-05-05T06:56:17.152Z,3.97
2023-05-05T06:59:21.733Z,4.43
2023-05-05T07:02:27.052Z,3.60
2023-05-05T07:05:31.861Z,4.55
2023-05-05T07:08:36.515Z,2.60
2023-05-05T07:11:41.164Z,2.35
2023-05-05T07:14:47.052Z,2.72
2023-05-05T07:17:51.798Z,2.72
2023-05-05T07:20:56.620Z,2.03
2023-05-05T07:24:04.961Z,2.28
2023-05-05T07:27:09.883Z,2.80
2023-05-05T07:30:17.294Z,2.15
2023-05-05T07:33:23.282Z,3.25
2023-05-05T07:36:28.356Z,2.42
2023-05-05T07:39:33.738Z,2.58
2023-05-05T07:42:38.280Z,3.90
2023-05-05T07:45:42.863Z,4.15
2023-05-05T07:48:47.640Z,5.45
2023-05-05T07:51:54.405Z,2.22
2023-05-05T07:54:59.035Z,2.00
2023-05-05T07:58:03.963Z,2.33
2023-05-05T08:01:10.986Z,7.13
2023-05-05T08:04:15.654Z,4.30
2023-05-05T08:07:20.602Z,3.90
2023-05-05T08:10:25.373Z,1.90
2023-05-05T08:13:33.122Z,2.38
2023-05-05T08:16:37.894Z,2.85
2023-05-05T08:19:42.610Z,1.20
2023-05-05T08:22:47.740Z,2.17
2023-05-05T08:25:52.365Z,2.10
2023-05-05T08:29:00.759Z,4.55
2023-05-05T08:32:05.571Z,2.30
2023-05-05T08:35:10.519Z,3.10
2023-05-05T08:38:15.390Z,2.67
2023-05-05T08:41:20.443Z,3.70
2023-05-05T08:44:26.992Z,2.85
2023-05-05T08:47:32.319Z,2.78
2023-05-05T08:50:39.331Z,2.72
2023-05-05T08:53:51.482Z,3.30
2023-05-05T08:57:02.269Z,2.42
2023-05-05T09:00:09.909Z,3.67
2023-05-05T09:03:15.765Z,2.97
2023-05-05T09:06:25.657Z,2.83
2023-05-05T09:09:30.718Z,3.97
2023-05-05T09:12:35.813Z,3.13
2023-05-05T09:15:42.080Z,2.25
2023-05-05T09:18:46.886Z,2.55
2023-05-05T09:21:51.544Z,2.50
2023-05-05T09:24:56.858Z,2.35
2023-05-05T09:28:12.651Z,2.10
2023-05-05T09:31:17.265Z,3.20
2023-05-05T09:34:22.030Z,2.75
2023-05-05T09:37:32.694Z,2.08
2023-05-05T09:40:49.970Z,2.47
2023-05-05T09:43:54.691Z,2.63
2023-05-05T09:46:59.505Z,2.20
2023-05-05T09:50:06.009Z,2.60
2023-05-05T09:53:11.897Z,1.20
2023-05-05T09:56:16.592Z,2.15
2023-05-05T09:59:22.049Z,2.95
2023-05-05T10:02:35.456Z,1.77
2023-05-05T10:05:58.860Z,1.67
2023-05-05T10:09:03.837Z,2.47
2023-05-05T10:12:08.359Z,1.63
2023-05-05T10:15:15.283Z,2.88
2023-05-05T10:18:26.150Z,2.45
2023-05-05T10:21:35.632Z,2.97
2023-05-05T10:24:47.094Z,3.83
2023-05-05T10:27:59.075Z,4.03
2023-05-05T10:31:20.366Z,3.50
2023-05-05T10:34:41.457Z,3.22
2023-05-05T10:37:46.927Z,2.60
2023-05-05T10:40:52.346Z,4.25
2023-05-05T10:43:58.264Z,3.05
2023-05-05T10:47:05.927Z,2.25
2023-05-05T10:50:16.573Z,3.15
2023-05-05T10:53:30.953Z,2.35
2023-05-05T10:56:36.208Z,1.80
2023-05-05T10:59:42.401Z,3.15
2023-05-05T11:02:47.209Z,2.33
2023-05-05T11:06:04.019Z,2.75
2023-05-05T11:09:28.387Z,2.28
2023-05-05T11:13:02.931Z,2.80
2023-05-05T11:16:50.188Z,2.33
2023-05-05T11:19:55.084Z,2.70
2023-05-05T11:23:02.602Z,2.95
2023-05-05T11:26:07.117Z,3.17
2023-05-05T11:29:11.762Z,3.90
2023-05-05T11:32:16.207Z,3.95
2023-05-05T11:35:21.020Z,2.88
2023-05-05T11:39:10.204Z,2.90
2023-05-05T11:42:26.764Z,3.03
2023-05-05T11:45:31.436Z,3.13
2023-05-05T11:48:48.196Z,4.75
2023-05-05T11:51:59.644Z,3.10
2023-05-05T11:55:04.659Z,2.22
2023-05-05T11:58:19.771Z,2.50
2023-05-05T12:01:24.017Z,0.57
2023-05-05T12:04:28.620Z,0.50
2023-05-05T12:07:33.810Z,0.65
2023-05-05T12:10:38.443Z,0.30
2023-05-05T12:13:43.174Z,1.38
2023-05-05T12:17:08.322Z,0.70
2023-05-05T12:20:14.467Z,1.80
2023-05-05T12:23:19.032Z,1.65
2023-05-05T12:26:30.028Z,1.10
2023-05-05T12:29:34.535Z,0.63
2023-05-05T12:32:39.904Z,0.77
2023-05-05T12:35:44.334Z,0.47
2023-05-05T12:38:49.875Z,0.85
2023-05-05T12:42:06.321Z,1.45
2023-05-05T12:45:17.758Z,1.02
2023-05-05T12:48:22.782Z,0.77
2023-05-05T12:51:28.118Z,1.10
2023-05-05T12:54:32.506Z,0.60
2023-05-05T12:57:37.668Z,0.88
2023-05-05T13:00:41.970Z,2.63
2023-05-05T13:03:46.670Z,1.55
2023-05-05T13:07:12.791Z,1.80
2023-05-05T13:10:18.438Z,1.55
2023-05-05T13:13:22.992Z,0.45
2023-05-05T13:16:27.787Z,0.77
2023-05-05T13:19:32.397Z,1.75
2023-05-05T13:22:37.271Z,0.85
2023-05-05T13:25:41.855Z,1.55
2023-05-05T13:28:46.834Z,0.73
2023-05-05T13:31:51.593Z,1.42
2023-05-05T13:34:56.219Z,0.90
2023-05-05T13:38:00.824Z,2.80
2023-05-05T13:41:05.743Z,1.30
2023-05-05T13:44:10.665Z,1.67
2023-05-05T13:47:15.525Z,2.50
2023-05-05T13:50:20.256Z,1.58
2023-05-05T13:53:25.269Z,1.20
2023-05-05T13:56:30.065Z,1.00
2023-05-05T13:59:34.514Z,2.20
2023-05-05T14:02:39.220Z,1.52
2023-05-05T14:05:46.097Z,1.73
2023-05-05T14:08:51.628Z,1.63
2023-05-05T14:11:56.055Z,1.15
2023-05-05T14:15:01.131Z,2.50
2023-05-05T14:18:06.208Z,1.40
2023-05-05T14:21:11.237Z,1.55
2023-05-05T14:24:15.743Z,1.85
2023-05-05T14:27:20.372Z,1.55
2023-05-05T14:30:25.343Z,2.75
2023-05-05T14:33:29.928Z,2.78
2023-05-05T14:36:34.179Z,1.25
2023-05-05T14:39:38.618Z,1.05
2023-05-05T14:42:43.105Z,1.10
2023-05-05T14:45:48.064Z,2.35
2023-05-05T14:48:52.963Z,1.50
2023-05-05T14:51:57.431Z,1.75
2023-05-05T14:55:01.993Z,1.90
2023-05-05T14:58:06.609Z,1.70
2023-05-05T15:01:11.196Z,2.35
2023-05-05T15:04:15.989Z,2.30
2023-05-05T15:07:22.098Z,1.58
2023-05-05T15:10:26.530Z,1.30
2023-05-05T15:13:31.287Z,2.25
2023-05-05T15:16:36.172Z,2.10
2023-05-05T15:19:41.160Z,1.45
2023-05-05T15:22:47.439Z,2.35
2023-05-05T15:25:52.979Z,1.92
2023-05-05T15:28:57.187Z,1.70
2023-05-05T15:32:01.589Z,1.13
2023-05-05T15:35:07.056Z,1.55
2023-05-05T15:38:11.715Z,2.10
2023-05-05T15:41:16.549Z,2.80
2023-05-05T15:44:21.316Z,1.40
2023-05-05T15:47:26.078Z,1.30
2023-05-05T15:50:31.000Z,0.80
2023-05-05T15:53:36.054Z,1.05
2023-05-05T15:56:40.849Z,1.95
2023-05-05T15:59:45.554Z,1.50
2023-05-05T16:02:50.324Z,1.48
2023-05-05T16:05:54.772Z,1.20
2023-05-05T16:08:59.710Z,1.80
2023-05-05T16:12:04.768Z,3.42
2023-05-05T16:15:10.649Z,4.85
2023-05-05T16:18:15.555Z,4.70
2023-05-05T16:21:20.605Z,3.25
2023-05-05T16:24:25.457Z,1.85
2023-05-05T16:27:30.440Z,3.13
2023-05-05T16:30:35.924Z,2.42
2023-05-05T16:33:43.812Z,1.00
2023-05-05T16:36:48.916Z,1.25
2023-05-05T16:39:53.853Z,0.90
2023-05-05T16:42:58.395Z,1.52
2023-05-05T16:46:03.769Z,1.50
2023-05-05T16:49:08.486Z,1.50
2023-05-05T16:52:13.041Z,1.17
2023-05-05T16:55:18.247Z,1.77
2023-05-05T16:58:23.561Z,1.25
2023-05-05T17:01:28.113Z,1.02
2023-05-05T17:04:32.635Z,0.80
2023-05-05T17:07:37.292Z,1.00
2023-05-05T17:10:45.437Z,1.77
2023-05-05T17:13:50.281Z,1.27
2023-05-05T17:16:55.039Z,1.35
2023-05-05T17:19:59.581Z,1.52
2023-05-05T17:23:03.911Z,0.95
2023-05-05T17:26:08.502Z,3.10
2023-05-05T17:29:13.242Z,0.88
2023-05-05T17:32:17.787Z,3.42
2023-05-05T17:35:22.376Z,0.85
2023-05-05T17:38:27.068Z,0.80
2023-05-05T17:41:31.607Z,1.58
2023-05-05T17:44:36.208Z,0.88
2023-05-05T17:47:41.164Z,1.00
2023-05-05T17:50:47.256Z,0.88
2023-05-05T17:53:51.784Z,1.25
2023-05-05T17:56:56.339Z,1.27
2023-05-05T18:00:06.480Z,1.75
2023-05-05T18:03:17.275Z,1.23
2023-05-05T18:06:22.168Z,1.85
2023-05-05T18:09:26.860Z,1.48
2023-05-05T18:12:31.551Z,1.67
2023-05-05T18:15:35.989Z,1.33
2023-05-05T18:18:41.296Z,1.45
2023-05-05T18:21:45.938Z,2.40
2023-05-05T18:24:50.834Z,2.00
2023-05-05T18:27:55.766Z,2.05
2023-05-05T18:31:00.199Z,2.10
2023-05-05T18:34:04.520Z,1.75
2023-05-05T18:37:09.100Z,1.33
2023-05-05T18:40:13.916Z,1.00
2023-05-05T18:43:18.860Z,2.53
2023-05-05T18:46:23.704Z,1.30
2023-05-05T18:49:30.390Z,1.60
2023-05-05T18:52:35.981Z,1.42
2023-05-05T18:55:42.702Z,1.17
2023-05-05T18:58:47.249Z,1.27
2023-05-05T19:01:51.643Z,1.73
2023-05-05T19:04:56.259Z,1.60
2023-05-05T19:08:00.937Z,1.50
2023-05-05T19:11:05.432Z,2.28
2023-05-05T19:14:09.917Z,1.80
2023-05-05T19:17:14.596Z,2.42
2023-05-05T19:20:20.233Z,2.00
2023-05-05T19:23:24.618Z,2.63
2023-05-05T19:26:29.409Z,2.45
2023-05-05T19:29:34.094Z,2.83
2023-05-05T19:32:38.856Z,1.77
2023-05-05T19:35:44.404Z,2.17
2023-05-05T19:38:48.970Z,2.80
2023-05-05T19:41:53.514Z,1.77
2023-05-05T19:44:58.197Z,1.92
2023-05-05T19:48:02.981Z,2.47
2023-05-05T19:51:07.767Z,2.25
2023-05-05T19:54:12.322Z,3.40
2023-05-05T19:57:18.705Z,2.40
2023-05-05T20:00:23.119Z,2.80
2023-05-05T20:03:27.882Z,2.38
2023-05-05T20:06:33.106Z,3.72
2023-05-05T20:09:37.816Z,2.05
2023-05-05T20:12:47.736Z,2.53
2023-05-05T20:15:53.061Z,3.17
2023-05-05T20:18:57.549Z,2.55
2023-05-05T20:22:02.171Z,2.83
2023-05-05T20:25:07.334Z,2.78
2023-05-05T20:28:11.951Z,2.97
2023-05-05T20:31:16.650Z,3.58
2023-05-05T20:34:24.071Z,3.55
2023-05-05T20:37:28.375Z,3.20
2023-05-05T20:40:33.836Z,3.75
2023-05-05T20:43:39.322Z,2.97
2023-05-05T20:46:44.297Z,2.72
2023-05-05T20:49:48.643Z,3.72
2023-05-05T20:52:53.222Z,3.15
2023-05-05T20:55:58.001Z,3.15
2023-05-05T20:59:04.560Z,4.57
2023-05-05T21:02:09.256Z,3.40
2023-05-05T21:05:14.297Z,3.38
2023-05-05T21:08:18.722Z,3.33
2023-05-05T21:11:23.064Z,4.95
2023-05-05T21:14:27.649Z,4.18
2023-05-05T21:17:32.397Z,4.25
2023-05-05T21:20:37.020Z,3.90
2023-05-05T21:23:41.531Z,4.15
2023-05-05T21:26:46.100Z,3.35
2023-05-05T21:29:51.049Z,5.13
2023-05-05T21:32:55.856Z,3.97
2023-05-05T21:36:00.728Z,4.18
2023-05-05T21:39:05.127Z,4.15
2023-05-05T21:42:09.567Z,4.43
2023-05-05T21:45:13.964Z,4.78
2023-05-05T21:48:18.332Z,5.40
2023-05-05T21:51:23.442Z,5.30
2023-05-05T21:54:29.742Z,6.05
2023-05-05T21:57:34.589Z,7.97
2023-05-05T22:00:39.031Z,10.60
2023-05-05T22:03:44.028Z,8.40
2023-05-05T22:06:48.504Z,9.07
2023-05-05T22:09:52.697Z,10.70
2023-05-05T22:12:58.113Z,8.70
2023-05-05T22:16:02.769Z,9.23
2023-05-05T22:19:07.434Z,9.95
2023-05-05T22:22:11.680Z,9.45
2023-05-05T22:25:16.246Z,11.18
2023-05-05T22:28:23.949Z,7.55
2023-05-05T22:31:29.484Z,8.23
2023-05-05T22:34:38.066Z,8.23
2023-05-05T22:37:42.357Z,7.47
2023-05-05T22:40:47.242Z,8.77
2023-05-05T22:43:51.835Z,8.13
2023-05-05T22:46:56.355Z,6.97
2023-05-05T22:50:00.722Z,8.30
2023-05-05T22:53:05.347Z,8.02
2023-05-05T22:56:10.550Z,7.53
2023-05-05T22:59:15.525Z,8.35
2023-05-05T23:02:20.421Z,7.55
2023-05-05T23:05:24.906Z,8.50
2023-05-05T23:08:29.379Z,7.13
2023-05-05T23:11:34.098Z,6.38
2023-05-05T23:14:39.201Z,8.20
2023-05-05T23:17:43.832Z,6.53
2023-05-05T23:20:48.019Z,5.75
2023-05-05T23:23:52.574Z,7.35
2023-05-05T23:27:04.267Z,6.20
2023-05-05T23:30:09.869Z,6.93
2023-05-05T23:33:14.621Z,5.57
2023-05-05T23:36:18.966Z,5.97
2023-05-05T23:39:23.521Z,6.07
2023-05-05T23:42:27.948Z,5.80
2023-05-05T23:45:32.266Z,5.22
2023-05-05T23:48:36.640Z,5.30
2023-05-05T23:51:41.188Z,6.60
2023-05-05T23:54:45.784Z,6.57
2023-05-05T23:57:52.970Z,5.82
